sensor_id;sensor_type;location;lat;lon;timestamp;P1;durP1;ratioP1;P2;durP2;ratioP2
21315;SDS011;10817;55.820;13.030;2023-04-25T00:00:30;10.35;;;5.85;;
21315;SDS011;10817;55.820;13.030;2023-04-25T00:02:57;8.38;;;4.55;;
21315;SDS011;10817;55.820;13.030;2023-04-25T00:05:25;7.40;;;4.90;;
21315;SDS011;10817;55.820;13.030;2023-04-25T00:07:52;12.40;;;4.97;;
21315;SDS011;10817;55.820;13.030;2023-04-25T00:10:19;8.20;;;5.35;;
21315;SDS011;10817;55.820;13.030;2023-04-25T00:12:47;11.10;;;5.25;;
21315;SDS011;10817;55.820;13.030;2023-04-25T00:15:15;9.20;;;5.53;;
21315;SDS011;10817;55.820;13.030;2023-04-25T00:17:42;8.50;;;5.20;;
21315;SDS011;10817;55.820;13.030;2023-04-25T00:20:11;8.52;;;5.57;;
21315;SDS011;10817;55.820;13.030;2023-04-25T00:22:38;11.18;;;6.20;;
21315;SDS011;10817;55.820;13.030;2023-04-25T00:25:06;11.00;;;5.15;;
21315;SDS011;10817;55.820;13.030;2023-04-25T00:27:33;8.02;;;5.10;;
21315;SDS011;10817;55.820;13.030;2023-04-25T00:30:00;10.85;;;5.60;;
21315;SDS011;10817;55.820;13.030;2023-04-25T00:32:29;8.95;;;4.88;;
21315;SDS011;10817;55.820;13.030;2023-04-25T00:34:56;10.18;;;5.68;;
21315;SDS011;10817;55.820;13.030;2023-04-25T00:37:24;9.30;;;5.72;;
21315;SDS011;10817;55.820;13.030;2023-04-25T00:39:51;6.70;;;5.50;;
21315;SDS011;10817;55.820;13.030;2023-04-25T00:42:21;9.27;;;5.20;;
21315;SDS011;10817;55.820;13.030;2023-04-25T00:44:48;8.10;;;5.35;;
21315;SDS011;10817;55.820;13.030;2023-04-25T00:47:15;10.25;;;5.10;;
21315;SDS011;10817;55.820;13.030;2023-04-25T00:49:44;9.32;;;4.10;;
21315;SDS011;10817;55.820;13.030;2023-04-25T00:52:11;11.40;;;4.22;;
21315;SDS011;10817;55.820;13.030;2023-04-25T00:54:38;8.25;;;4.18;;
21315;SDS011;10817;55.820;13.030;2023-04-25T00:57:05;8.10;;;3.67;;
21315;SDS011;10817;55.820;13.030;2023-04-25T00:59:32;10.07;;;3.75;;
21315;SDS011;10817;55.820;13.030;2023-04-25T01:02:00;8.52;;;3.88;;
21315;SDS011;10817;55.820;13.030;2023-04-25T01:04:27;13.07;;;3.95;;
21315;SDS011;10817;55.820;13.030;2023-04-25T01:06:56;8.18;;;4.22;;
21315;SDS011;10817;55.820;13.030;2023-04-25T01:09:24;5.85;;;3.63;;
21315;SDS011;10817;55.820;13.030;2023-04-25T01:11:51;6.63;;;3.75;;
21315;SDS011;10817;55.820;13.030;2023-04-25T01:14:18;11.82;;;4.88;;
21315;SDS011;10817;55.820;13.030;2023-04-25T01:16:45;7.18;;;4.68;;
21315;SDS011;10817;55.820;13.030;2023-04-25T01:19:13;8.98;;;6.50;;
21315;SDS011;10817;55.820;13.030;2023-04-25T01:21:46;10.52;;;6.70;;
21315;SDS011;10817;55.820;13.030;2023-04-25T01:24:14;8.63;;;5.95;;
21315;SDS011;10817;55.820;13.030;2023-04-25T01:26:41;11.32;;;5.60;;
21315;SDS011;10817;55.820;13.030;2023-04-25T01:29:16;12.02;;;5.00;;
21315;SDS011;10817;55.820;13.030;2023-04-25T01:31:44;7.75;;;4.65;;
21315;SDS011;10817;55.820;13.030;2023-04-25T01:34:11;10.70;;;5.28;;
21315;SDS011;10817;55.820;13.030;2023-04-25T01:36:39;7.03;;;4.47;;
21315;SDS011;10817;55.820;13.030;2023-04-25T01:39:08;6.38;;;5.30;;
21315;SDS011;10817;55.820;13.030;2023-04-25T01:41:37;10.07;;;5.18;;
21315;SDS011;10817;55.820;13.030;2023-04-25T01:44:04;16.83;;;6.97;;
21315;SDS011;10817;55.820;13.030;2023-04-25T01:46:32;15.65;;;6.97;;
21315;SDS011;10817;55.820;13.030;2023-04-25T01:49:00;12.45;;;6.72;;
21315;SDS011;10817;55.820;13.030;2023-04-25T01:51:27;14.02;;;6.65;;
21315;SDS011;10817;55.820;13.030;2023-04-25T01:53:55;15.50;;;6.22;;
21315;SDS011;10817;55.820;13.030;2023-04-25T01:56:25;12.20;;;5.75;;
21315;SDS011;10817;55.820;13.030;2023-04-25T01:59:00;9.93;;;5.85;;
21315;SDS011;10817;55.820;13.030;2023-04-25T02:01:45;10.10;;;5.05;;
21315;SDS011;10817;55.820;13.030;2023-04-25T02:04:21;8.18;;;4.65;;
21315;SDS011;10817;55.820;13.030;2023-04-25T02:06:48;11.38;;;4.72;;
21315;SDS011;10817;55.820;13.030;2023-04-25T02:09:18;10.18;;;4.80;;
21315;SDS011;10817;55.820;13.030;2023-04-25T02:11:52;9.32;;;4.00;;
21315;SDS011;10817;55.820;13.030;2023-04-25T02:14:26;10.40;;;4.82;;
21315;SDS011;10817;55.820;13.030;2023-04-25T02:17:12;6.93;;;3.83;;
21315;SDS011;10817;55.820;13.030;2023-04-25T02:19:39;9.20;;;3.13;;
21315;SDS011;10817;55.820;13.030;2023-04-25T02:22:08;6.53;;;3.60;;
21315;SDS011;10817;55.820;13.030;2023-04-25T02:24:35;3.22;;;2.63;;
21315;SDS011;10817;55.820;13.030;2023-04-25T02:27:04;8.20;;;3.30;;
21315;SDS011;10817;55.820;13.030;2023-04-25T02:29:34;5.90;;;3.75;;
21315;SDS011;10817;55.820;13.030;2023-04-25T02:32:01;8.55;;;3.88;;
21315;SDS011;10817;55.820;13.030;2023-04-25T02:34:28;6.95;;;3.70;;
21315;SDS011;10817;55.820;13.030;2023-04-25T02:36:59;8.63;;;4.05;;
21315;SDS011;10817;55.820;13.030;2023-04-25T02:39:26;9.55;;;4.15;;
21315;SDS011;10817;55.820;13.030;2023-04-25T02:41:54;10.95;;;4.22;;
21315;SDS011;10817;55.820;13.030;2023-04-25T02:44:23;9.18;;;3.90;;
21315;SDS011;10817;55.820;13.030;2023-04-25T02:46:50;8.60;;;3.70;;
21315;SDS011;10817;55.820;13.030;2023-04-25T02:49:18;8.00;;;3.75;;
21315;SDS011;10817;55.820;13.030;2023-04-25T02:51:45;12.13;;;3.70;;
21315;SDS011;10817;55.820;13.030;2023-04-25T02:54:12;5.93;;;2.90;;
21315;SDS011;10817;55.820;13.030;2023-04-25T02:56:44;6.82;;;3.65;;
21315;SDS011;10817;55.820;13.030;2023-04-25T02:59:18;8.50;;;3.10;;
21315;SDS011;10817;55.820;13.030;2023-04-25T03:01:46;7.40;;;3.65;;
21315;SDS011;10817;55.820;13.030;2023-04-25T03:04:13;6.65;;;3.97;;
21315;SDS011;10817;55.820;13.030;2023-04-25T03:06:41;10.07;;;4.40;;
21315;SDS011;10817;55.820;13.030;2023-04-25T03:09:08;6.65;;;4.15;;
21315;SDS011;10817;55.820;13.030;2023-04-25T03:11:36;6.38;;;4.03;;
21315;SDS011;10817;55.820;13.030;2023-04-25T03:14:04;11.02;;;4.40;;
21315;SDS011;10817;55.820;13.030;2023-04-25T03:16:31;14.30;;;3.95;;
21315;SDS011;10817;55.820;13.030;2023-04-25T03:19:00;7.97;;;3.65;;
21315;SDS011;10817;55.820;13.030;2023-04-25T03:21:27;11.82;;;4.38;;
21315;SDS011;10817;55.820;13.030;2023-04-25T03:23:57;9.25;;;5.03;;
21315;SDS011;10817;55.820;13.030;2023-04-25T03:26:24;12.68;;;4.93;;
21315;SDS011;10817;55.820;13.030;2023-04-25T03:28:51;14.88;;;4.53;;
21315;SDS011;10817;55.820;13.030;2023-04-25T03:31:22;9.40;;;4.72;;
21315;SDS011;10817;55.820;13.030;2023-04-25T03:33:49;15.27;;;4.75;;
21315;SDS011;10817;55.820;13.030;2023-04-25T03:36:20;11.45;;;4.68;;
21315;SDS011;10817;55.820;13.030;2023-04-25T03:38:47;13.15;;;5.75;;
21315;SDS011;10817;55.820;13.030;2023-04-25T03:41:16;10.27;;;4.97;;
21315;SDS011;10817;55.820;13.030;2023-04-25T03:43:55;16.85;;;6.90;;
21315;SDS011;10817;55.820;13.030;2023-04-25T03:46:25;14.50;;;5.72;;
21315;SDS011;10817;55.820;13.030;2023-04-25T03:48:53;13.43;;;5.05;;
21315;SDS011;10817;55.820;13.030;2023-04-25T03:51:38;14.98;;;5.22;;
21315;SDS011;10817;55.820;13.030;2023-04-25T03:54:08;20.55;;;5.65;;
21315;SDS011;10817;55.820;13.030;2023-04-25T03:56:58;15.57;;;5.53;;
21315;SDS011;10817;55.820;13.030;2023-04-25T03:59:27;19.30;;;5.75;;
21315;SDS011;10817;55.820;13.030;2023-04-25T04:01:55;10.35;;;4.70;;
21315;SDS011;10817;55.820;13.030;2023-04-25T04:04:23;24.15;;;6.22;;
21315;SDS011;10817;55.820;13.030;2023-04-25T04:06:51;17.80;;;4.82;;
21315;SDS011;10817;55.820;13.030;2023-04-25T04:09:24;17.08;;;4.90;;
21315;SDS011;10817;55.820;13.030;2023-04-25T04:11:53;12.20;;;4.88;;
21315;SDS011;10817;55.820;13.030;2023-04-25T04:14:20;18.98;;;5.00;;
21315;SDS011;10817;55.820;13.030;2023-04-25T04:16:52;13.10;;;4.82;;
21315;SDS011;10817;55.820;13.030;2023-04-25T04:19:31;17.45;;;4.85;;
21315;SDS011;10817;55.820;13.030;2023-04-25T04:22:08;15.77;;;4.30;;
21315;SDS011;10817;55.820;13.030;2023-04-25T04:24:37;11.57;;;4.63;;
21315;SDS011;10817;55.820;13.030;2023-04-25T04:27:06;16.00;;;3.90;;
21315;SDS011;10817;55.820;13.030;2023-04-25T04:29:45;11.48;;;4.40;;
21315;SDS011;10817;55.820;13.030;2023-04-25T04:32:24;12.35;;;4.47;;
21315;SDS011;10817;55.820;13.030;2023-04-25T04:35:01;15.32;;;4.75;;
21315;SDS011;10817;55.820;13.030;2023-04-25T04:37:30;14.27;;;4.85;;
21315;SDS011;10817;55.820;13.030;2023-04-25T04:39:59;12.80;;;4.03;;
21315;SDS011;10817;55.820;13.030;2023-04-25T04:43:09;10.07;;;4.63;;
21315;SDS011;10817;55.820;13.030;2023-04-25T04:45:43;12.98;;;4.28;;
21315;SDS011;10817;55.820;13.030;2023-04-25T04:48:31;11.88;;;3.83;;
21315;SDS011;10817;55.820;13.030;2023-04-25T04:51:19;15.73;;;4.30;;
21315;SDS011;10817;55.820;13.030;2023-04-25T04:54:09;12.60;;;4.00;;
21315;SDS011;10817;55.820;13.030;2023-04-25T04:57:11;20.55;;;4.90;;
21315;SDS011;10817;55.820;13.030;2023-04-25T04:59:57;10.77;;;4.43;;
21315;SDS011;10817;55.820;13.030;2023-04-25T05:02:52;12.45;;;4.13;;
21315;SDS011;10817;55.820;13.030;2023-04-25T05:05:29;14.25;;;3.33;;
21315;SDS011;10817;55.820;13.030;2023-04-25T05:08:14;13.18;;;3.95;;
21315;SDS011;10817;55.820;13.030;2023-04-25T05:11:10;15.77;;;4.05;;
21315;SDS011;10817;55.820;13.030;2023-04-25T05:14:08;13.88;;;4.90;;
21315;SDS011;10817;55.820;13.030;2023-04-25T05:17:14;13.18;;;5.00;;
21315;SDS011;10817;55.820;13.030;2023-04-25T05:20:05;17.35;;;5.15;;
21315;SDS011;10817;55.820;13.030;2023-04-25T05:22:53;13.65;;;4.32;;
21315;SDS011;10817;55.820;13.030;2023-04-25T05:25:44;14.00;;;4.47;;
21315;SDS011;10817;55.820;13.030;2023-04-25T05:28:51;13.10;;;4.65;;
21315;SDS011;10817;55.820;13.030;2023-04-25T05:31:35;16.52;;;4.82;;
21315;SDS011;10817;55.820;13.030;2023-04-25T05:34:09;16.02;;;4.85;;
21315;SDS011;10817;55.820;13.030;2023-04-25T05:37:00;11.07;;;4.50;;
21315;SDS011;10817;55.820;13.030;2023-04-25T05:39:28;12.85;;;4.65;;
21315;SDS011;10817;55.820;13.030;2023-04-25T05:42:23;20.38;;;5.40;;
21315;SDS011;10817;55.820;13.030;2023-04-25T05:45:22;22.75;;;5.45;;
21315;SDS011;10817;55.820;13.030;2023-04-25T05:48:12;19.70;;;4.90;;
21315;SDS011;10817;55.820;13.030;2023-04-25T05:50:59;21.98;;;5.55;;
21315;SDS011;10817;55.820;13.030;2023-04-25T05:54:04;18.35;;;5.65;;
21315;SDS011;10817;55.820;13.030;2023-04-25T05:56:33;16.77;;;5.47;;
21315;SDS011;10817;55.820;13.030;2023-04-25T05:59:00;25.88;;;5.70;;
21315;SDS011;10817;55.820;13.030;2023-04-25T06:01:35;21.13;;;5.60;;
21315;SDS011;10817;55.820;13.030;2023-04-25T06:04:33;17.38;;;4.90;;
21315;SDS011;10817;55.820;13.030;2023-04-25T06:07:00;15.82;;;5.55;;
21315;SDS011;10817;55.820;13.030;2023-04-25T06:09:28;21.35;;;5.68;;
21315;SDS011;10817;55.820;13.030;2023-04-25T06:12:04;20.05;;;6.05;;
21315;SDS011;10817;55.820;13.030;2023-04-25T06:14:36;16.08;;;5.13;;
21315;SDS011;10817;55.820;13.030;2023-04-25T06:17:11;17.52;;;5.13;;
21315;SDS011;10817;55.820;13.030;2023-04-25T06:19:38;13.40;;;4.82;;
21315;SDS011;10817;55.820;13.030;2023-04-25T06:22:06;20.35;;;5.15;;
21315;SDS011;10817;55.820;13.030;2023-04-25T06:24:35;16.92;;;4.50;;
21315;SDS011;10817;55.820;13.030;2023-04-25T06:27:06;18.13;;;4.60;;
21315;SDS011;10817;55.820;13.030;2023-04-25T06:29:34;19.63;;;5.40;;
21315;SDS011;10817;55.820;13.030;2023-04-25T06:32:06;26.73;;;5.55;;
21315;SDS011;10817;55.820;13.030;2023-04-25T06:35:01;16.73;;;6.50;;
21315;SDS011;10817;55.820;13.030;2023-04-25T06:37:32;16.92;;;5.72;;
21315;SDS011;10817;55.820;13.030;2023-04-25T06:40:00;26.30;;;7.63;;
21315;SDS011;10817;55.820;13.030;2023-04-25T06:42:32;18.23;;;6.20;;
21315;SDS011;10817;55.820;13.030;2023-04-25T06:45:20;18.55;;;6.10;;
21315;SDS011;10817;55.820;13.030;2023-04-25T06:47:58;20.27;;;5.72;;
21315;SDS011;10817;55.820;13.030;2023-04-25T06:50:30;16.48;;;5.95;;
21315;SDS011;10817;55.820;13.030;2023-04-25T06:52:58;20.90;;;6.43;;
21315;SDS011;10817;55.820;13.030;2023-04-25T06:55:27;18.85;;;6.90;;
21315;SDS011;10817;55.820;13.030;2023-04-25T06:58:15;26.42;;;7.15;;
21315;SDS011;10817;55.820;13.030;2023-04-25T07:01:00;16.08;;;6.68;;
21315;SDS011;10817;55.820;13.030;2023-04-25T07:03:33;19.85;;;6.60;;
21315;SDS011;10817;55.820;13.030;2023-04-25T07:06:08;22.95;;;7.20;;
21315;SDS011;10817;55.820;13.030;2023-04-25T07:08:35;20.27;;;6.82;;
21315;SDS011;10817;55.820;13.030;2023-04-25T07:11:02;22.05;;;6.50;;
21315;SDS011;10817;55.820;13.030;2023-04-25T07:13:30;25.80;;;6.43;;
21315;SDS011;10817;55.820;13.030;2023-04-25T07:15:57;24.35;;;6.40;;
21315;SDS011;10817;55.820;13.030;2023-04-25T07:18:29;22.95;;;6.45;;
21315;SDS011;10817;55.820;13.030;2023-04-25T07:21:00;25.42;;;7.05;;
21315;SDS011;10817;55.820;13.030;2023-04-25T07:23:30;24.45;;;6.75;;
21315;SDS011;10817;55.820;13.030;2023-04-25T07:26:15;28.90;;;6.40;;
21315;SDS011;10817;55.820;13.030;2023-04-25T07:29:05;21.30;;;7.57;;
21315;SDS011;10817;55.820;13.030;2023-04-25T07:31:36;23.17;;;6.72;;
21315;SDS011;10817;55.820;13.030;2023-04-25T07:34:31;30.88;;;7.85;;
21315;SDS011;10817;55.820;13.030;2023-04-25T07:37:03;22.05;;;6.38;;
21315;SDS011;10817;55.820;13.030;2023-04-25T07:39:39;27.80;;;7.20;;
21315;SDS011;10817;55.820;13.030;2023-04-25T07:42:07;25.80;;;6.55;;
21315;SDS011;10817;55.820;13.030;2023-04-25T07:44:55;18.77;;;5.75;;
21315;SDS011;10817;55.820;13.030;2023-04-25T07:47:42;19.30;;;5.55;;
21315;SDS011;10817;55.820;13.030;2023-04-25T07:50:19;26.67;;;6.10;;
21315;SDS011;10817;55.820;13.030;2023-04-25T07:52:46;29.40;;;6.95;;
21315;SDS011;10817;55.820;13.030;2023-04-25T07:55:24;20.63;;;5.70;;
21315;SDS011;10817;55.820;13.030;2023-04-25T07:57:59;29.95;;;7.30;;
21315;SDS011;10817;55.820;13.030;2023-04-25T08:00:38;23.30;;;6.13;;
21315;SDS011;10817;55.820;13.030;2023-04-25T08:03:26;24.70;;;5.95;;
21315;SDS011;10817;55.820;13.030;2023-04-25T08:05:54;22.58;;;6.30;;
21315;SDS011;10817;55.820;13.030;2023-04-25T08:08:25;19.85;;;5.95;;
21315;SDS011;10817;55.820;13.030;2023-04-25T08:10:54;25.27;;;5.40;;
21315;SDS011;10817;55.820;13.030;2023-04-25T08:13:26;23.63;;;5.68;;
21315;SDS011;10817;55.820;13.030;2023-04-25T08:15:56;23.05;;;6.20;;
21315;SDS011;10817;55.820;13.030;2023-04-25T08:18:34;23.80;;;5.38;;
21315;SDS011;10817;55.820;13.030;2023-04-25T08:21:03;27.65;;;5.93;;
21315;SDS011;10817;55.820;13.030;2023-04-25T08:26:38;18.48;;;5.05;;
21315;SDS011;10817;55.820;13.030;2023-04-25T08:29:08;21.98;;;5.35;;
21315;SDS011;10817;55.820;13.030;2023-04-25T08:31:39;15.50;;;5.50;;
21315;SDS011;10817;55.820;13.030;2023-04-25T08:34:25;23.63;;;4.85;;
21315;SDS011;10817;55.820;13.030;2023-04-25T08:37:06;19.80;;;4.88;;
21315;SDS011;10817;55.820;13.030;2023-04-25T08:40:01;15.52;;;3.60;;
21315;SDS011;10817;55.820;13.030;2023-04-25T08:42:55;16.35;;;3.88;;
21315;SDS011;10817;55.820;13.030;2023-04-25T08:45:31;23.73;;;4.45;;
21315;SDS011;10817;55.820;13.030;2023-04-25T08:47:59;13.88;;;3.88;;
21315;SDS011;10817;55.820;13.030;2023-04-25T08:50:27;14.57;;;4.03;;
21315;SDS011;10817;55.820;13.030;2023-04-25T08:53:19;18.55;;;3.53;;
21315;SDS011;10817;55.820;13.030;2023-04-25T08:55:59;13.50;;;3.25;;
21315;SDS011;10817;55.820;13.030;2023-04-25T08:58:38;10.35;;;2.83;;
21315;SDS011;10817;55.820;13.030;2023-04-25T09:01:12;16.70;;;4.10;;
21315;SDS011;10817;55.820;13.030;2023-04-25T09:03:47;23.02;;;3.75;;
21315;SDS011;10817;55.820;13.030;2023-04-25T09:06:16;11.20;;;3.22;;
21315;SDS011;10817;55.820;13.030;2023-04-25T09:09:05;14.05;;;3.92;;
21315;SDS011;10817;55.820;13.030;2023-04-25T09:11:36;10.80;;;3.13;;
21315;SDS011;10817;55.820;13.030;2023-04-25T09:17:22;10.32;;;3.55;;
21315;SDS011;10817;55.820;13.030;2023-04-25T09:20:04;19.60;;;2.70;;
21315;SDS011;10817;55.820;13.030;2023-04-25T09:22:38;16.67;;;3.88;;
21315;SDS011;10817;55.820;13.030;2023-04-25T09:25:10;10.60;;;3.17;;
21315;SDS011;10817;55.820;13.030;2023-04-25T09:27:55;17.90;;;3.60;;
21315;SDS011;10817;55.820;13.030;2023-04-25T09:30:48;11.32;;;2.88;;
21315;SDS011;10817;55.820;13.030;2023-04-25T09:33:32;16.15;;;3.00;;
21315;SDS011;10817;55.820;13.030;2023-04-25T09:36:02;9.75;;;2.53;;
21315;SDS011;10817;55.820;13.030;2023-04-25T09:38:47;14.50;;;3.75;;
21315;SDS011;10817;55.820;13.030;2023-04-25T09:41:22;14.48;;;2.72;;
21315;SDS011;10817;55.820;13.030;2023-04-25T09:43:50;13.32;;;3.35;;
21315;SDS011;10817;55.820;13.030;2023-04-25T09:46:18;9.98;;;2.80;;
21315;SDS011;10817;55.820;13.030;2023-04-25T09:48:52;11.55;;;3.30;;
21315;SDS011;10817;55.820;13.030;2023-04-25T09:51:30;12.65;;;3.10;;
21315;SDS011;10817;55.820;13.030;2023-04-25T09:53:59;13.95;;;3.20;;
21315;SDS011;10817;55.820;13.030;2023-04-25T09:59:32;13.73;;;3.10;;
21315;SDS011;10817;55.820;13.030;2023-04-25T10:02:00;13.45;;;3.55;;
21315;SDS011;10817;55.820;13.030;2023-04-25T10:04:37;15.77;;;3.85;;
21315;SDS011;10817;55.820;13.030;2023-04-25T10:07:23;14.82;;;3.50;;
21315;SDS011;10817;55.820;13.030;2023-04-25T10:10:02;14.55;;;3.13;;
21315;SDS011;10817;55.820;13.030;2023-04-25T10:12:32;15.40;;;3.40;;
21315;SDS011;10817;55.820;13.030;2023-04-25T10:14:59;16.70;;;3.90;;
21315;SDS011;10817;55.820;13.030;2023-04-25T10:17:35;15.98;;;3.03;;
21315;SDS011;10817;55.820;13.030;2023-04-25T10:20:18;18.02;;;4.53;;
21315;SDS011;10817;55.820;13.030;2023-04-25T10:22:58;21.08;;;4.40;;
21315;SDS011;10817;55.820;13.030;2023-04-25T10:25:36;17.98;;;4.20;;
21315;SDS011;10817;55.820;13.030;2023-04-25T10:30:56;17.80;;;3.45;;
21315;SDS011;10817;55.820;13.030;2023-04-25T10:33:29;19.23;;;4.38;;
21315;SDS011;10817;55.820;13.030;2023-04-25T10:36:05;22.95;;;4.43;;
21315;SDS011;10817;55.820;13.030;2023-04-25T10:38:35;21.30;;;3.92;;
21315;SDS011;10817;55.820;13.030;2023-04-25T10:41:03;15.30;;;4.13;;
21315;SDS011;10817;55.820;13.030;2023-04-25T10:43:37;17.13;;;4.18;;
21315;SDS011;10817;55.820;13.030;2023-04-25T10:46:18;21.67;;;4.97;;
21315;SDS011;10817;55.820;13.030;2023-04-25T10:48:48;19.48;;;4.18;;
21315;SDS011;10817;55.820;13.030;2023-04-25T10:51:19;16.63;;;4.35;;
21315;SDS011;10817;55.820;13.030;2023-04-25T10:54:05;17.42;;;4.68;;
21315;SDS011;10817;55.820;13.030;2023-04-25T10:56:44;20.48;;;4.15;;
21315;SDS011;10817;55.820;13.030;2023-04-25T10:59:12;23.00;;;4.60;;
21315;SDS011;10817;55.820;13.030;2023-04-25T11:01:42;24.77;;;4.15;;
21315;SDS011;10817;55.820;13.030;2023-04-25T11:04:20;18.75;;;3.92;;
21315;SDS011;10817;55.820;13.030;2023-04-25T11:06:54;19.15;;;4.35;;
21315;SDS011;10817;55.820;13.030;2023-04-25T11:09:30;22.58;;;4.47;;
21315;SDS011;10817;55.820;13.030;2023-04-25T11:12:00;18.85;;;3.78;;
21315;SDS011;10817;55.820;13.030;2023-04-25T11:14:35;21.58;;;4.32;;
21315;SDS011;10817;55.820;13.030;2023-04-25T11:17:14;22.35;;;4.43;;
21315;SDS011;10817;55.820;13.030;2023-04-25T11:19:41;17.13;;;4.00;;
21315;SDS011;10817;55.820;13.030;2023-04-25T11:22:12;26.98;;;4.32;;
21315;SDS011;10817;55.820;13.030;2023-04-25T11:24:40;25.60;;;4.22;;
21315;SDS011;10817;55.820;13.030;2023-04-25T11:27:07;18.60;;;4.30;;
21315;SDS011;10817;55.820;13.030;2023-04-25T11:29:38;24.00;;;6.10;;
21315;SDS011;10817;55.820;13.030;2023-04-25T11:32:05;23.73;;;4.82;;
21315;SDS011;10817;55.820;13.030;2023-04-25T11:34:32;17.80;;;4.70;;
21315;SDS011;10817;55.820;13.030;2023-04-25T11:40:07;31.33;;;4.25;;
21315;SDS011;10817;55.820;13.030;2023-04-25T11:42:38;21.98;;;5.18;;
21315;SDS011;10817;55.820;13.030;2023-04-25T11:45:13;22.55;;;4.43;;
21315;SDS011;10817;55.820;13.030;2023-04-25T11:47:41;16.40;;;4.38;;
21315;SDS011;10817;55.820;13.030;2023-04-25T11:50:14;15.75;;;4.70;;
21315;SDS011;10817;55.820;13.030;2023-04-25T11:52:46;20.83;;;5.22;;
21315;SDS011;10817;55.820;13.030;2023-04-25T11:55:18;16.48;;;4.80;;
21315;SDS011;10817;55.820;13.030;2023-04-25T11:57:46;20.38;;;4.28;;
21315;SDS011;10817;55.820;13.030;2023-04-25T12:00:15;15.95;;;3.90;;
21315;SDS011;10817;55.820;13.030;2023-04-25T12:02:42;15.25;;;3.83;;
21315;SDS011;10817;55.820;13.030;2023-04-25T12:05:10;14.88;;;3.83;;
21315;SDS011;10817;55.820;13.030;2023-04-25T12:07:38;17.55;;;4.38;;
21315;SDS011;10817;55.820;13.030;2023-04-25T12:10:09;19.90;;;4.70;;
21315;SDS011;10817;55.820;13.030;2023-04-25T12:12:58;24.77;;;4.53;;
21315;SDS011;10817;55.820;13.030;2023-04-25T12:15:25;25.30;;;4.85;;
21315;SDS011;10817;55.820;13.030;2023-04-25T12:17:53;17.33;;;3.90;;
21315;SDS011;10817;55.820;13.030;2023-04-25T12:20:31;21.70;;;4.85;;
21315;SDS011;10817;55.820;13.030;2023-04-25T12:23:31;19.27;;;4.22;;
21315;SDS011;10817;55.820;13.030;2023-04-25T12:25:58;26.08;;;4.50;;
21315;SDS011;10817;55.820;13.030;2023-04-25T12:28:32;20.33;;;3.90;;
21315;SDS011;10817;55.820;13.030;2023-04-25T12:31:09;18.23;;;3.92;;
21315;SDS011;10817;55.820;13.030;2023-04-25T12:33:39;25.08;;;5.13;;
21315;SDS011;10817;55.820;13.030;2023-04-25T12:36:07;18.60;;;4.32;;
21315;SDS011;10817;55.820;13.030;2023-04-25T12:38:38;21.52;;;4.40;;
21315;SDS011;10817;55.820;13.030;2023-04-25T12:41:25;17.60;;;3.63;;
21315;SDS011;10817;55.820;13.030;2023-04-25T12:43:54;17.98;;;3.90;;
21315;SDS011;10817;55.820;13.030;2023-04-25T12:46:27;19.35;;;3.47;;
21315;SDS011;10817;55.820;13.030;2023-04-25T12:48:58;12.15;;;3.05;;
21315;SDS011;10817;55.820;13.030;2023-04-25T12:51:25;14.63;;;3.28;;
21315;SDS011;10817;55.820;13.030;2023-04-25T12:53:52;15.10;;;3.58;;
21315;SDS011;10817;55.820;13.030;2023-04-25T12:56:20;12.35;;;3.17;;
21315;SDS011;10817;55.820;13.030;2023-04-25T12:58:47;11.25;;;3.20;;
21315;SDS011;10817;55.820;13.030;2023-04-25T13:01:24;16.55;;;3.08;;
21315;SDS011;10817;55.820;13.030;2023-04-25T14:24:26;12.43;;;2.88;;
21315;SDS011;10817;55.820;13.030;2023-04-25T15:25:09;10.93;;;2.10;;
21315;SDS011;10817;55.820;13.030;2023-04-25T19:24:32;21.55;;;3.13;;
21315;SDS011;10817;55.820;13.030;2023-04-25T19:42:18;16.70;;;3.05;;
21315;SDS011;10817;55.820;13.030;2023-04-25T19:45:27;14.25;;;3.35;;
21315;SDS011;10817;55.820;13.030;2023-04-25T19:47:52;16.40;;;2.53;;
21315;SDS011;10817;55.820;13.030;2023-04-25T21:19:25;25.83;;;3.80;;
21315;SDS011;10817;55.820;13.030;2023-04-25T21:21:53;22.95;;;3.33;;
21315;SDS011;10817;55.820;13.030;2023-04-25T21:24:23;18.35;;;3.45;;
21315;SDS011;10817;55.820;13.030;2023-04-25T21:33:36;20.17;;;3.67;;
21315;SDS011;10817;55.820;13.030;2023-04-25T21:36:12;21.80;;;3.80;;
21315;SDS011;10817;55.820;13.030;2023-04-25T21:38:40;21.80;;;4.15;;
21315;SDS011;10817;55.820;13.030;2023-04-25T21:41:07;22.17;;;4.05;;
21315;SDS011;10817;55.820;13.030;2023-04-25T21:43:34;19.08;;;3.75;;
21315;SDS011;10817;55.820;13.030;2023-04-25T21:46:02;14.38;;;3.10;;
21315;SDS011;10817;55.820;13.030;2023-04-25T21:48:29;24.85;;;3.83;;
21315;SDS011;10817;55.820;13.030;2023-04-25T21:50:56;20.05;;;3.80;;
21315;SDS011;10817;55.820;13.030;2023-04-25T21:53:25;20.63;;;4.30;;
21315;SDS011;10817;55.820;13.030;2023-04-25T21:55:52;15.15;;;3.13;;
21315;SDS011;10817;55.820;13.030;2023-04-25T21:58:19;19.77;;;3.55;;
21315;SDS011;10817;55.820;13.030;2023-04-25T22:00:47;20.27;;;3.45;;
21315;SDS011;10817;55.820;13.030;2023-04-25T22:03:14;18.98;;;3.53;;
21315;SDS011;10817;55.820;13.030;2023-04-25T22:05:44;15.30;;;3.38;;
21315;SDS011;10817;55.820;13.030;2023-04-25T22:08:26;14.90;;;2.92;;
21315;SDS011;10817;55.820;13.030;2023-04-25T22:15:31;17.75;;;3.42;;
21315;SDS011;10817;55.820;13.030;2023-04-25T22:17:59;28.02;;;4.10;;
21315;SDS011;10817;55.820;13.030;2023-04-25T22:20:28;14.25;;;3.75;;
21315;SDS011;10817;55.820;13.030;2023-04-25T22:22:56;27.33;;;3.85;;
21315;SDS011;10817;55.820;13.030;2023-04-25T22:25:23;20.02;;;4.60;;
21315;SDS011;10817;55.820;13.030;2023-04-25T22:27:50;22.08;;;3.50;;
21315;SDS011;10817;55.820;13.030;2023-04-25T22:30:19;26.10;;;4.00;;
21315;SDS011;10817;55.820;13.030;2023-04-25T22:32:48;18.83;;;3.78;;
21315;SDS011;10817;55.820;13.030;2023-04-25T22:35:15;17.52;;;3.92;;
21315;SDS011;10817;55.820;13.030;2023-04-25T22:37:43;24.77;;;4.18;;
21315;SDS011;10817;55.820;13.030;2023-04-25T22:40:11;16.35;;;3.72;;
21315;SDS011;10817;55.820;13.030;2023-04-25T22:42:39;24.67;;;4.70;;
21315;SDS011;10817;55.820;13.030;2023-04-25T22:45:07;21.85;;;3.72;;
21315;SDS011;10817;55.820;13.030;2023-04-25T22:47:35;24.10;;;4.35;;
21315;SDS011;10817;55.820;13.030;2023-04-25T22:50:04;21.38;;;3.45;;
21315;SDS011;10817;55.820;13.030;2023-04-25T22:52:36;26.15;;;6.07;;
21315;SDS011;10817;55.820;13.030;2023-04-25T22:55:04;21.13;;;4.07;;
21315;SDS011;10817;55.820;13.030;2023-04-25T22:57:31;21.80;;;4.00;;
21315;SDS011;10817;55.820;13.030;2023-04-25T22:59:58;27.67;;;4.55;;
21315;SDS011;10817;55.820;13.030;2023-04-25T23:02:25;18.02;;;3.78;;
21315;SDS011;10817;55.820;13.030;2023-04-25T23:04:52;24.40;;;4.50;;
21315;SDS011;10817;55.820;13.030;2023-04-25T23:07:21;29.55;;;4.22;;
21315;SDS011;10817;55.820;13.030;2023-04-25T23:09:49;20.65;;;3.80;;
21315;SDS011;10817;55.820;13.030;2023-04-25T23:12:16;25.50;;;4.90;;
21315;SDS011;10817;55.820;13.030;2023-04-25T23:14:47;25.38;;;4.07;;
21315;SDS011;10817;55.820;13.030;2023-04-25T23:17:15;24.50;;;4.38;;
21315;SDS011;10817;55.820;13.030;2023-04-25T23:19:42;21.38;;;4.80;;
21315;SDS011;10817;55.820;13.030;2023-04-25T23:22:10;23.20;;;4.07;;
21315;SDS011;10817;55.820;13.030;2023-04-25T23:24:39;18.85;;;4.05;;